createdAt,value
2022-12-29T00:00:02.889Z,93.77
2022-12-29T00:01:03.108Z,93.67
2022-12-29T00:02:02.873Z,93.67
2022-12-29T00:03:02.962Z,93.67
2022-12-29T00:04:02.898Z,93.67
2022-12-29T00:05:02.857Z,93.73
2022-12-29T00:06:02.821Z,93.63
2022-12-29T00:07:02.815Z,93.63
2022-12-29T00:08:02.800Z,93.73
2022-12-29T00:09:02.798Z,93.73
2022-12-29T00:10:02.778Z,93.73
2022-12-29T00:11:02.789Z,93.73
2022-12-29T00:12:02.794Z,93.73
2022-12-29T00:13:02.751Z,93.73
2022-12-29T00:14:02.743Z,93.73
2022-12-29T00:15:02.724Z,93.73
2022-12-29T00:16:02.813Z,93.83
2022-12-29T00:17:02.714Z,93.83
2022-12-29T00:18:02.711Z,93.83
2022-12-29T00:19:02.682Z,93.83
2022-12-29T00:20:02.675Z,93.93
2022-12-29T00:21:02.679Z,93.93
2022-12-29T00:22:02.665Z,93.93
2022-12-29T00:23:02.654Z,93.93
2022-12-29T00:24:02.627Z,94.04
2022-12-29T00:25:02.625Z,94.04
2022-12-29T00:26:02.605Z,94.04
2022-12-29T00:27:02.608Z,94.14
2022-12-29T00:28:07.169Z,94.14
2022-12-29T00:29:02.586Z,94.14
2022-12-29T00:30:02.567Z,94.24
2022-12-29T00:31:02.660Z,94.24
2022-12-29T00:32:02.554Z,94.24
2022-12-29T00:33:02.564Z,94.24
2022-12-29T00:34:02.536Z,94.34
2022-12-29T00:35:02.534Z,94.34
2022-12-29T00:36:02.507Z,94.34
2022-12-29T00:37:02.528Z,94.45
2022-12-29T00:38:02.483Z,94.45
2022-12-29T00:39:02.494Z,94.45
2022-12-29T00:40:02.459Z,94.45
2022-12-29T00:41:02.453Z,94.45
2022-12-29T00:42:02.437Z,94.55
2022-12-29T00:43:02.446Z,94.55
2022-12-29T00:44:02.440Z,94.51
2022-12-29T00:45:02.440Z,94.51
2022-12-29T00:46:02.413Z,94.51
2022-12-29T00:47:02.467Z,94.61
2022-12-29T00:48:02.373Z,94.61
2022-12-29T00:49:02.374Z,94.61
2022-12-29T00:50:02.356Z,94.61
2022-12-29T00:51:02.362Z,94.61
2022-12-29T00:52:02.359Z,94.61
2022-12-29T00:53:02.323Z,94.71
2022-12-29T00:54:02.309Z,94.71
2022-12-29T00:55:02.310Z,94.71
2022-12-29T00:56:02.294Z,94.71
2022-12-29T00:57:02.333Z,94.71
2022-12-29T00:58:02.264Z,94.81
2022-12-29T00:59:02.289Z,94.71
2022-12-29T01:00:02.251Z,94.81
2022-12-29T01:01:02.282Z,94.81
2022-12-29T01:02:02.357Z,94.81
2022-12-29T01:03:02.337Z,94.81
2022-12-29T01:04:04.488Z,94.81
2022-12-29T01:05:02.196Z,94.81
2022-12-29T01:06:02.183Z,94.81
2022-12-29T01:07:02.178Z,94.81
2022-12-29T01:08:02.171Z,94.81
2022-12-29T01:09:02.174Z,94.81
2022-12-29T01:10:02.141Z,94.81
2022-12-29T01:11:02.134Z,94.81
2022-12-29T01:12:02.114Z,94.81
2022-12-29T01:13:02.106Z,94.81
2022-12-29T01:14:02.123Z,94.81
2022-12-29T01:15:02.085Z,94.81
2022-12-29T01:16:02.102Z,94.81
2022-12-29T01:17:02.072Z,94.71
2022-12-29T01:18:02.055Z,94.71
2022-12-29T01:19:02.039Z,94.71
2022-12-29T01:20:02.087Z,94.71
2022-12-29T01:21:02.014Z,94.71
2022-12-29T01:22:02.026Z,94.71
2022-12-29T01:23:01.996Z,94.61
2022-12-29T01:24:02.007Z,94.61
2022-12-29T01:25:02.005Z,94.56
2022-12-29T01:26:01.955Z,94.56
2022-12-29T01:27:01.980Z,94.56
2022-12-29T01:28:01.949Z,94.56
2022-12-29T01:29:01.961Z,94.56
2022-12-29T01:30:01.937Z,94.56
2022-12-29T01:31:01.926Z,94.46
2022-12-29T01:32:01.975Z,94.46
2022-12-29T01:33:01.891Z,94.46
2022-12-29T01:34:01.904Z,94.46
2022-12-29T01:35:01.868Z,94.46
2022-12-29T01:36:01.868Z,94.36
2022-12-29T01:37:01.871Z,94.36
2022-12-29T01:38:01.835Z,94.36
2022-12-29T01:39:01.822Z,94.36
2022-12-29T01:40:01.821Z,94.36
2022-12-29T01:41:01.803Z,94.26
2022-12-29T01:42:01.787Z,94.26
2022-12-29T01:43:01.801Z,94.26
2022-12-29T01:44:01.778Z,94.15
2022-12-29T01:45:01.758Z,94.15
2022-12-29T01:46:01.763Z,94.15
2022-12-29T01:47:01.753Z,94.05
2022-12-29T01:48:01.735Z,94.05
2022-12-29T01:49:01.768Z,94.05
2022-12-29T01:50:01.732Z,93.95
2022-12-29T01:51:01.696Z,93.95
2022-12-29T01:52:01.681Z,93.95
2022-12-29T01:53:01.677Z,93.85
2022-12-29T01:54:01.660Z,93.85
2022-12-29T01:55:01.648Z,93.85
2022-12-29T01:56:01.634Z,93.74
2022-12-29T01:57:01.652Z,93.60
2022-12-29T01:58:01.629Z,93.60
2022-12-29T01:59:01.659Z,93.49
2022-12-29T02:00:01.603Z,93.39
2022-12-29T02:01:01.683Z,93.29
2022-12-29T02:02:01.654Z,93.19
2022-12-29T02:03:01.635Z,93.08
2022-12-29T02:04:01.561Z,92.98
2022-12-29T02:05:04.687Z,92.88
2022-12-29T02:06:01.537Z,92.68
2022-12-29T02:07:01.539Z,92.57
2022-12-29T02:08:01.497Z,92.36
2022-12-29T02:09:01.522Z,92.27
2022-12-29T02:10:01.499Z,92.16
2022-12-29T02:11:01.475Z,92.06
2022-12-29T02:12:01.456Z,91.96
2022-12-29T02:13:01.466Z,91.86
2022-12-29T02:14:03.761Z,91.75
2022-12-29T02:15:01.444Z,91.65
2022-12-29T02:16:01.456Z,91.55
2022-12-29T02:17:01.458Z,91.55
2022-12-29T02:18:01.397Z,91.55
2022-12-29T02:19:01.385Z,91.55
2022-12-29T02:20:01.373Z,91.44
2022-12-29T02:21:01.350Z,91.35
2022-12-29T02:22:01.390Z,91.24
2022-12-29T02:23:01.344Z,91.24
2022-12-29T02:24:01.317Z,91.24
2022-12-29T02:25:01.314Z,91.14
2022-12-29T02:26:01.318Z,91.03
2022-12-29T02:27:01.282Z,90.99
2022-12-29T02:28:01.286Z,90.89
2022-12-29T02:29:01.267Z,90.93
2022-12-29T02:30:01.267Z,90.79
2022-12-29T02:31:01.240Z,90.73
2022-12-29T02:32:01.416Z,90.83
2022-12-29T02:33:01.223Z,90.69
2022-12-29T02:34:01.228Z,90.62
2022-12-29T02:35:01.197Z,90.58
2022-12-29T02:36:01.195Z,90.58
2022-12-29T02:37:01.214Z,90.52
2022-12-29T02:38:01.169Z,90.28
2022-12-29T02:39:01.151Z,90.07
2022-12-29T02:40:01.146Z,89.97
2022-12-29T02:41:01.124Z,89.87
2022-12-29T02:42:01.131Z,89.66
2022-12-29T02:43:01.119Z,89.45
2022-12-29T02:44:01.111Z,89.36
2022-12-29T02:45:01.081Z,89.15
2022-12-29T02:46:01.245Z,88.84
2022-12-29T02:47:01.100Z,88.64
2022-12-29T02:48:01.053Z,88.23
2022-12-29T02:49:01.050Z,87.82
2022-12-29T02:50:01.032Z,87.61
2022-12-29T02:51:01.050Z,87.10
2022-12-29T02:52:01.021Z,86.79
2022-12-29T02:53:01.009Z,86.65
2022-12-29T02:54:00.984Z,86.55
2022-12-29T02:55:00.975Z,86.14
2022-12-29T02:56:00.977Z,85.93
2022-12-29T02:57:00.972Z,85.93
2022-12-29T02:58:00.947Z,85.72
2022-12-29T02:59:00.959Z,85.31
2022-12-29T03:00:00.917Z,85.31
2022-12-29T03:01:00.941Z,85.01
2022-12-29T03:02:01.057Z,84.70
2022-12-29T03:03:00.969Z,84.60
2022-12-29T03:04:00.878Z,84.50
2022-12-29T03:05:00.869Z,84.60
2022-12-29T03:06:00.845Z,84.39
2022-12-29T03:07:00.829Z,84.39
2022-12-29T03:08:00.838Z,84.05
2022-12-29T03:09:00.814Z,83.95
2022-12-29T03:10:00.803Z,83.74
2022-12-29T03:11:00.792Z,83.95
2022-12-29T03:12:00.784Z,83.95
2022-12-29T03:13:00.777Z,83.74
2022-12-29T03:14:00.775Z,83.84
2022-12-29T03:15:00.754Z,83.44
2022-12-29T03:16:00.734Z,83.33
2022-12-29T03:17:00.834Z,83.44
2022-12-29T03:18:00.698Z,83.54
2022-12-29T03:19:00.697Z,83.13
2022-12-29T03:20:00.701Z,83.33
2022-12-29T03:21:00.670Z,83.64
2022-12-29T03:22:00.679Z,84.25
2022-12-29T03:23:00.656Z,84.56
2022-12-29T03:24:00.640Z,84.87
2022-12-29T03:25:00.640Z,84.97
2022-12-29T03:26:00.605Z,85.11
2022-12-29T03:27:00.602Z,85.63
2022-12-29T03:28:00.632Z,85.83
2022-12-29T03:29:00.570Z,85.93
2022-12-29T03:30:00.574Z,86.24
2022-12-29T03:31:00.601Z,86.55
2022-12-29T03:32:00.546Z,86.34
2022-12-29T03:33:00.529Z,86.55
2022-12-29T03:34:00.535Z,86.75
2022-12-29T03:35:00.505Z,87.20
2022-12-29T03:36:00.503Z,87.30
2022-12-29T03:37:00.481Z,87.30
2022-12-29T03:38:00.487Z,87.61
2022-12-29T03:39:00.474Z,87.82
2022-12-29T03:40:00.453Z,88.02
2022-12-29T03:41:00.460Z,88.02
2022-12-29T03:42:00.435Z,88.12
2022-12-29T03:43:00.425Z,88.12
2022-12-29T03:44:00.400Z,88.43
2022-12-29T03:45:00.410Z,88.53
2022-12-29T03:46:00.580Z,88.68
2022-12-29T03:47:00.362Z,88.68
2022-12-29T03:48:00.371Z,88.78
2022-12-29T03:49:00.349Z,88.78
2022-12-29T03:50:00.331Z,88.78
2022-12-29T03:51:00.330Z,88.68
2022-12-29T03:52:00.325Z,88.68
2022-12-29T03:53:00.317Z,88.78
2022-12-29T03:54:00.289Z,88.88
2022-12-29T03:55:00.272Z,88.88
2022-12-29T03:56:00.287Z,88.98
2022-12-29T03:57:00.253Z,88.98
2022-12-29T03:58:00.243Z,88.98
2022-12-29T03:59:00.271Z,89.09
2022-12-29T04:00:00.235Z,89.09
2022-12-29T04:01:00.238Z,89.19
2022-12-29T04:02:00.404Z,89.19
2022-12-29T04:03:00.290Z,89.19
2022-12-29T04:04:00.187Z,89.19
2022-12-29T04:05:00.166Z,89.19
2022-12-29T04:06:00.157Z,89.19
2022-12-29T04:07:00.166Z,89.04
2022-12-29T04:08:00.150Z,89.09
2022-12-29T04:09:00.156Z,89.04
2022-12-29T04:10:00.153Z,89.04
2022-12-29T04:11:00.109Z,89.04
2022-12-29T04:12:00.145Z,89.04
2022-12-29T04:13:00.127Z,89.15
2022-12-29T04:14:00.073Z,88.94
2022-12-29T04:15:00.075Z,88.84
2022-12-29T04:16:00.198Z,88.84
2022-12-29T04:17:00.028Z,88.53
2022-12-29T04:18:00.034Z,88.33
2022-12-29T04:19:00.046Z,88.12
2022-12-29T04:20:00.001Z,88.02
2022-12-29T04:21:00.014Z,88.02
2022-12-29T04:21:59.974Z,88.12
2022-12-29T04:22:59.980Z,88.02
2022-12-29T04:23:59.970Z,87.92
2022-12-29T04:24:59.953Z,87.82
2022-12-29T04:25:59.947Z,87.92
2022-12-29T04:26:59.922Z,87.82
2022-12-29T04:27:59.930Z,87.82
2022-12-29T04:28:59.922Z,87.71
2022-12-29T04:29:59.913Z,87.51
2022-12-29T04:30:59.929Z,87.26
2022-12-29T04:31:59.889Z,87.26
2022-12-29T04:32:59.859Z,87.16
2022-12-29T04:33:59.865Z,87.06
2022-12-29T04:34:59.831Z,86.85
2022-12-29T04:35:59.833Z,86.65
2022-12-29T04:36:59.830Z,86.65
2022-12-29T04:37:59.811Z,86.44
2022-12-29T04:38:59.803Z,86.34
2022-12-29T04:39:59.787Z,86.14
2022-12-29T04:40:59.801Z,86.04
2022-12-29T04:41:59.761Z,85.99
2022-12-29T04:42:59.757Z,85.99
2022-12-29T04:43:59.740Z,85.69
2022-12-29T04:44:59.735Z,85.58
2022-12-29T04:45:59.798Z,85.58
2022-12-29T04:46:59.719Z,85.38
2022-12-29T04:47:59.697Z,85.38
2022-12-29T04:48:59.682Z,85.48
2022-12-29T04:49:59.668Z,85.28
2022-12-29T04:50:59.673Z,85.28
2022-12-29T04:51:59.675Z,85.07
2022-12-29T04:52:59.647Z,85.07
2022-12-29T04:53:59.661Z,84.77
2022-12-29T04:54:59.627Z,84.87
2022-12-29T04:55:59.609Z,84.87
2022-12-29T04:56:59.611Z,84.77
2022-12-29T04:57:59.584Z,84.77
2022-12-29T04:58:59.569Z,84.36
2022-12-29T04:59:59.585Z,84.46
2022-12-29T05:00:59.550Z,84.22
2022-12-29T05:01:59.643Z,84.01
2022-12-29T05:02:59.719Z,83.60
2022-12-29T05:03:59.569Z,83.60
2022-12-29T05:04:59.519Z,83.50
2022-12-29T05:05:59.498Z,83.50
2022-12-29T05:06:59.501Z,83.50
2022-12-29T05:07:59.505Z,83.29
2022-12-29T05:08:59.498Z,83.29
2022-12-29T05:09:59.457Z,83.29
2022-12-29T05:10:59.446Z,83.19
2022-12-29T05:11:59.442Z,83.29
2022-12-29T05:12:59.435Z,83.19
2022-12-29T05:13:59.437Z,83.19
2022-12-29T05:14:59.417Z,83.09
2022-12-29T05:15:59.408Z,82.98
2022-12-29T05:16:59.389Z,82.98
2022-12-29T05:17:59.389Z,82.57
2022-12-29T05:18:59.368Z,82.57
2022-12-29T05:19:59.373Z,82.48
2022-12-29T05:20:59.351Z,82.48
2022-12-29T05:21:59.332Z,82.48
2022-12-29T05:22:59.309Z,82.57
2022-12-29T05:23:59.305Z,82.57
2022-12-29T05:24:59.295Z,82.48
2022-12-29T05:25:59.310Z,82.48
2022-12-29T05:26:59.272Z,82.17
2022-12-29T05:27:59.274Z,82.17
2022-12-29T05:28:59.268Z,82.17
2022-12-29T05:29:59.237Z,82.27
2022-12-29T05:30:59.277Z,82.17
2022-12-29T05:31:59.244Z,82.07
2022-12-29T05:32:59.218Z,81.96
2022-12-29T05:33:59.199Z,82.07
2022-12-29T05:34:59.193Z,82.17
2022-12-29T05:35:59.185Z,81.96
2022-12-29T05:36:59.163Z,81.96
2022-12-29T05:37:59.171Z,81.65
2022-12-29T05:38:59.141Z,81.45
2022-12-29T05:39:59.133Z,81.24
2022-12-29T05:40:59.118Z,81.45
2022-12-29T05:41:59.117Z,81.45
2022-12-29T05:42:59.093Z,81.24
2022-12-29T05:43:59.083Z,81.35
2022-12-29T05:44:59.085Z,81.35
2022-12-29T05:45:59.050Z,81.24
2022-12-29T05:46:59.086Z,81.15
2022-12-29T05:47:59.048Z,81.15
2022-12-29T05:48:59.028Z,81.35
2022-12-29T05:49:59.009Z,81.15
2022-12-29T05:50:59.002Z,81.15
2022-12-29T05:51:58.984Z,80.83
2022-12-29T05:52:58.995Z,81.04
2022-12-29T05:53:58.973Z,80.53
2022-12-29T05:54:58.951Z,80.39
2022-12-29T05:55:58.948Z,80.49
2022-12-29T05:56:58.919Z,80.49
2022-12-29T05:57:58.913Z,80.19
2022-12-29T05:58:58.929Z,79.98
2022-12-29T05:59:58.935Z,79.88
2022-12-29T06:00:58.887Z,79.57
2022-12-29T06:01:59.052Z,79.47
2022-12-29T06:02:59.158Z,79.68
2022-12-29T06:03:58.944Z,79.37
2022-12-29T06:04:58.836Z,78.75
2022-12-29T06:05:58.817Z,78.86
2022-12-29T06:06:58.812Z,78.86
2022-12-29T06:07:58.804Z,78.86
2022-12-29T06:08:58.796Z,78.86
2022-12-29T06:09:58.799Z,78.75
2022-12-29T06:10:58.776Z,78.55
2022-12-29T06:11:58.762Z,78.55
2022-12-29T06:12:58.748Z,78.34
2022-12-29T06:13:58.747Z,78.75
2022-12-29T06:14:58.731Z,78.24
2022-12-29T06:15:58.750Z,78.24
2022-12-29T06:16:58.710Z,78.14
2022-12-29T06:17:58.692Z,77.83
2022-12-29T06:18:58.704Z,77.80
2022-12-29T06:19:58.678Z,77.70
2022-12-29T06:20:58.662Z,77.80
2022-12-29T06:21:58.674Z,77.70
2022-12-29T06:22:58.635Z,77.80
2022-12-29T06:23:58.622Z,77.59
2022-12-29T06:25:04.360Z,77.80
2022-12-29T06:25:58.607Z,77.80
2022-12-29T06:26:58.592Z,77.94
2022-12-29T06:27:58.590Z,77.83
2022-12-29T06:28:58.564Z,77.63
2022-12-29T06:29:58.551Z,77.63
2022-12-29T06:30:58.543Z,77.53
2022-12-29T06:31:58.667Z,77.29
2022-12-29T06:32:58.544Z,77.49
2022-12-29T06:34:00.372Z,77.08
2022-12-29T06:34:58.502Z,77.19
2022-12-29T06:35:58.480Z,77.39
2022-12-29T06:36:58.477Z,77.29
2022-12-29T06:37:58.475Z,77.39
2022-12-29T06:38:58.518Z,77.32
2022-12-29T06:39:58.460Z,77.73
2022-12-29T06:40:58.432Z,77.73
2022-12-29T06:41:58.436Z,77.22
2022-12-29T06:42:58.419Z,77.53
2022-12-29T06:43:58.404Z,77.53
2022-12-29T06:44:58.404Z,77.63
2022-12-29T06:45:58.462Z,77.12
2022-12-29T06:46:58.496Z,77.12
2022-12-29T06:47:58.383Z,77.12
2022-12-29T06:48:58.397Z,77.01
2022-12-29T06:49:58.331Z,77.01
2022-12-29T06:50:58.343Z,76.61
2022-12-29T06:51:58.303Z,76.47
2022-12-29T06:52:58.304Z,76.47
2022-12-29T06:53:58.303Z,76.57
2022-12-29T06:54:58.278Z,76.37
2022-12-29T06:55:58.274Z,76.47
2022-12-29T06:56:58.275Z,76.16
2022-12-29T06:57:58.255Z,75.85
2022-12-29T06:58:58.327Z,75.96
2022-12-29T06:59:58.227Z,76.26
2022-12-29T07:00:58.279Z,75.96
2022-12-29T07:01:58.482Z,76.16
2022-12-29T07:02:58.287Z,75.85
2022-12-29T07:03:58.171Z,75.85
2022-12-29T07:04:58.176Z,76.06
2022-12-29T07:05:58.180Z,75.96
2022-12-29T07:06:58.152Z,75.96
2022-12-29T07:07:58.140Z,76.30
2022-12-29T07:08:58.155Z,76.20
2022-12-29T07:09:58.116Z,76.30
2022-12-29T07:10:58.112Z,76.40
2022-12-29T07:11:58.094Z,76.40
2022-12-29T07:12:58.091Z,76.20
2022-12-29T07:14:04.717Z,76.30
2022-12-29T07:14:58.098Z,76.30
2022-12-29T07:15:58.057Z,76.40
2022-12-29T07:16:58.077Z,76.30
2022-12-29T07:17:58.031Z,76.40
2022-12-29T07:18:58.019Z,76.40
2022-12-29T07:19:58.018Z,76.40
2022-12-29T07:20:57.990Z,76.61
2022-12-29T07:21:57.990Z,76.50
2022-12-29T07:22:57.973Z,76.61
2022-12-29T07:23:57.959Z,76.61
2022-12-29T07:24:57.955Z,76.71
2022-12-29T07:25:57.947Z,76.61
2022-12-29T07:26:57.932Z,76.61
2022-12-29T07:27:57.917Z,76.71
2022-12-29T07:28:57.898Z,76.71
2022-12-29T07:29:57.901Z,77.01
2022-12-29T07:30:57.890Z,77.01
2022-12-29T07:31:57.923Z,76.91
2022-12-29T07:32:57.861Z,76.81
2022-12-29T07:33:57.853Z,76.81
2022-12-29T07:34:57.844Z,76.91
2022-12-29T07:35:57.854Z,76.71
2022-12-29T07:36:57.820Z,76.71
2022-12-29T07:37:57.811Z,76.71
2022-12-29T07:38:57.813Z,76.61
2022-12-29T07:39:57.795Z,76.40
2022-12-29T07:40:57.771Z,76.40
2022-12-29T07:42:04.358Z,76.20
2022-12-29T07:42:57.767Z,76.40
2022-12-29T07:43:57.751Z,76.40
2022-12-29T07:44:57.735Z,76.50
2022-12-29T07:45:57.834Z,76.71
2022-12-29T07:46:58.964Z,76.91
2022-12-29T07:47:57.690Z,76.81
2022-12-29T07:48:57.697Z,76.81
2022-12-29T07:49:57.691Z,76.61
2022-12-29T07:50:57.655Z,76.81
2022-12-29T07:51:57.644Z,76.95
2022-12-29T07:52:57.645Z,76.84
2022-12-29T07:53:57.630Z,76.81
2022-12-29T07:54:57.614Z,77.12
2022-12-29T07:55:57.612Z,77.26
2022-12-29T07:56:57.591Z,77.36
2022-12-29T07:57:57.618Z,77.26
2022-12-29T07:58:57.581Z,76.75
2022-12-29T07:59:57.549Z,76.34
2022-12-29T08:00:57.556Z,76.34
2022-12-29T08:01:57.676Z,76.43
2022-12-29T08:02:57.536Z,76.43
2022-12-29T08:03:57.991Z,76.30
2022-12-29T08:04:57.505Z,75.79
2022-12-29T08:05:57.481Z,76.09
2022-12-29T08:06:57.470Z,75.38
2022-12-29T08:07:57.467Z,75.38
2022-12-29T08:08:57.457Z,75.48
2022-12-29T08:09:57.436Z,75.48
2022-12-29T08:10:57.432Z,75.38
2022-12-29T08:11:57.408Z,75.38
2022-12-29T08:12:57.423Z,75.38
2022-12-29T08:13:57.383Z,75.48
2022-12-29T08:14:57.394Z,75.59
2022-12-29T08:15:57.422Z,75.59
2022-12-29T08:16:57.381Z,75.59
2022-12-29T08:17:57.355Z,75.68
2022-12-29T08:18:57.342Z,75.79
2022-12-29T08:19:57.332Z,75.68
2022-12-29T08:20:57.307Z,75.93
2022-12-29T08:21:57.295Z,76.20
2022-12-29T08:22:57.298Z,76.64
2022-12-29T08:23:57.268Z,76.43
2022-12-29T08:24:57.257Z,76.23
2022-12-29T08:25:57.256Z,76.23
2022-12-29T08:26:57.275Z,76.03
2022-12-29T08:27:57.265Z,76.13
2022-12-29T08:28:57.334Z,75.62
2022-12-29T08:29:57.203Z,75.72
2022-12-29T08:30:58.001Z,75.93
2022-12-29T08:31:57.268Z,75.93
2022-12-29T08:32:57.156Z,75.82
2022-12-29T08:33:57.188Z,75.72
2022-12-29T08:34:57.156Z,75.93
2022-12-29T08:35:57.163Z,75.93
2022-12-29T08:36:57.952Z,76.13
2022-12-29T08:37:57.257Z,76.03
2022-12-29T08:38:57.107Z,76.03
2022-12-29T08:39:57.109Z,76.23
2022-12-29T08:40:57.149Z,76.13
2022-12-29T08:41:57.160Z,75.93
2022-12-29T08:42:57.197Z,76.03
2022-12-29T08:43:57.195Z,76.13
2022-12-29T08:44:57.229Z,76.03
2022-12-29T08:45:57.265Z,76.13
2022-12-29T08:46:57.144Z,75.93
2022-12-29T08:47:57.043Z,75.82
2022-12-29T08:48:58.208Z,75.93
2022-12-29T08:49:56.976Z,75.93
2022-12-29T08:50:56.983Z,75.93
2022-12-29T08:51:56.974Z,75.93
2022-12-29T08:52:56.952Z,76.13
2022-12-29T08:53:56.945Z,76.43
2022-12-29T08:54:56.934Z,76.34
2022-12-29T08:56:00.797Z,76.34
2022-12-29T08:56:56.919Z,76.43
2022-12-29T08:57:56.890Z,76.84
2022-12-29T08:58:56.884Z,77.56
2022-12-29T08:59:56.870Z,77.46
2022-12-29T09:00:56.858Z,77.76
2022-12-29T09:01:56.920Z,78.08
2022-12-29T09:02:57.053Z,78.59
2022-12-29T09:04:56.888Z,80.46
2022-12-29T09:05:56.811Z,80.88
2022-12-29T09:06:56.778Z,81.43
2022-12-29T09:07:56.795Z,81.63
2022-12-29T09:08:56.752Z,81.84
2022-12-29T09:09:56.770Z,82.45
2022-12-29T09:10:56.757Z,82.49
2022-12-29T09:11:56.723Z,82.49
2022-12-29T09:12:56.712Z,82.79
2022-12-29T09:13:56.729Z,82.69
2022-12-29T09:14:56.719Z,82.90
2022-12-29T09:15:56.722Z,83.31
2022-12-29T09:16:56.668Z,82.69
2022-12-29T09:17:56.679Z,82.79
2022-12-29T09:18:56.639Z,83.00
2022-12-29T09:19:56.629Z,83.10
2022-12-29T09:20:56.621Z,83.31
2022-12-29T09:21:56.631Z,83.72
2022-12-29T09:22:56.586Z,83.82
2022-12-29T09:23:56.623Z,83.72
2022-12-29T09:24:56.603Z,83.41
2022-12-29T09:25:56.550Z,82.96
2022-12-29T09:26:56.539Z,82.86
2022-12-29T09:27:56.537Z,82.96
2022-12-29T09:28:56.553Z,82.86
2022-12-29T09:29:56.511Z,82.24
2022-12-29T09:30:56.533Z,82.04
2022-12-29T09:31:56.484Z,82.04
2022-12-29T09:32:56.517Z,81.73
2022-12-29T09:33:56.467Z,81.94
2022-12-29T09:34:56.559Z,81.94
2022-12-29T09:35:56.434Z,81.84
2022-12-29T09:36:56.446Z,81.12
2022-12-29T09:37:56.418Z,80.40
2022-12-29T09:38:56.396Z,80.81
2022-12-29T09:39:56.426Z,79.79
2022-12-29T09:40:56.374Z,79.48
2022-12-29T09:41:56.382Z,79.58
2022-12-29T09:42:56.361Z,79.38
2022-12-29T09:43:56.352Z,79.17
2022-12-29T09:44:56.423Z,78.66
2022-12-29T09:45:56.355Z,78.25
2022-12-29T09:46:56.486Z,78.15
2022-12-29T09:47:56.301Z,77.84
2022-12-29T09:48:56.301Z,77.60
2022-12-29T09:49:56.277Z,77.50
2022-12-29T09:50:56.274Z,77.50
2022-12-29T09:51:56.266Z,77.80
2022-12-29T09:52:56.248Z,77.70
2022-12-29T09:53:56.228Z,77.80
2022-12-29T09:55:02.949Z,77.19
2022-12-29T09:55:56.224Z,77.29
2022-12-29T09:56:56.191Z,77.50
2022-12-29T09:57:56.195Z,77.70
2022-12-29T09:58:56.168Z,77.09
2022-12-29T09:59:56.156Z,76.17
2022-12-29T10:00:56.278Z,77.09
2022-12-29T10:01:56.405Z,76.88
2022-12-29T10:02:56.257Z,76.27
2022-12-29T10:03:56.131Z,76.37
2022-12-29T10:04:56.146Z,76.06
2022-12-29T10:05:56.080Z,75.45
2022-12-29T10:07:27.883Z,75.55
2022-12-29T10:07:56.086Z,75.21
2022-12-29T10:08:56.052Z,75.52
2022-12-29T10:09:56.047Z,75.62
2022-12-29T10:10:56.069Z,75.52
2022-12-29T10:11:56.023Z,74.80
2022-12-29T10:12:56.001Z,74.69
2022-12-29T10:13:56.017Z,74.90
2022-12-29T10:14:55.995Z,74.80
2022-12-29T10:15:56.030Z,75.10
2022-12-29T10:16:55.977Z,74.69
2022-12-29T10:17:55.958Z,73.68
2022-12-29T10:18:55.958Z,73.54
2022-12-29T10:19:55.929Z,73.54
2022-12-29T10:20:55.919Z,73.94
2022-12-29T10:21:55.921Z,74.26
2022-12-29T10:22:55.931Z,73.94
2022-12-29T10:23:55.893Z,73.74
2022-12-29T10:24:55.871Z,73.13
2022-12-29T10:25:55.884Z,73.13
2022-12-29T10:26:55.850Z,73.54
2022-12-29T10:27:55.837Z,73.64
2022-12-29T10:28:55.855Z,73.54
2022-12-29T10:29:55.856Z,72.72
2022-12-29T10:30:55.803Z,72.92
2022-12-29T10:31:55.883Z,73.64
2022-12-29T10:32:55.786Z,73.44
2022-12-29T10:33:55.790Z,72.75
2022-12-29T10:34:55.761Z,72.34
2022-12-29T10:35:55.751Z,72.24
2022-12-29T10:36:55.732Z,72.21
2022-12-29T10:37:55.732Z,72.52
2022-12-29T10:38:55.754Z,72.92
2022-12-29T10:39:55.713Z,72.82
2022-12-29T10:40:55.698Z,73.03
2022-12-29T10:41:55.706Z,72.31
2022-12-29T10:42:55.678Z,72.82
2022-12-29T10:43:55.657Z,73.23
2022-12-29T10:44:55.975Z,72.00
2022-12-29T10:45:55.743Z,72.52
2022-12-29T10:46:55.619Z,72.52
2022-12-29T10:47:55.611Z,72.52
2022-12-29T10:48:55.612Z,72.31
2022-12-29T10:49:55.666Z,72.52
2022-12-29T10:51:01.425Z,73.03
2022-12-29T10:51:55.576Z,73.03
2022-12-29T10:52:55.564Z,72.21
2022-12-29T10:53:55.553Z,73.03
2022-12-29T10:54:55.529Z,72.72
2022-12-29T10:55:55.520Z,72.31
2022-12-29T10:56:55.502Z,72.21
2022-12-29T10:57:55.654Z,71.90
2022-12-29T10:58:55.482Z,71.90
2022-12-29T10:59:55.501Z,71.80
2022-12-29T11:00:55.555Z,71.59
2022-12-29T11:01:55.698Z,71.49
2022-12-29T11:02:55.608Z,72.00
2022-12-29T11:03:55.426Z,72.00
2022-12-29T11:04:55.435Z,72.11
2022-12-29T11:05:55.402Z,72.41
2022-12-29T11:06:55.415Z,71.80
2022-12-29T11:07:55.528Z,71.70
2022-12-29T11:08:55.388Z,71.90
2022-12-29T11:09:55.356Z,71.70
2022-12-29T11:10:55.350Z,71.49
2022-12-29T11:11:55.336Z,71.49
2022-12-29T11:12:55.330Z,71.80
2022-12-29T11:13:55.312Z,71.90
2022-12-29T11:14:55.285Z,71.70
2022-12-29T11:15:55.275Z,72.00
2022-12-29T11:16:55.344Z,72.00
2022-12-29T11:17:55.257Z,72.00
2022-12-29T11:18:55.238Z,72.31
2022-12-29T11:19:55.238Z,71.90
2022-12-29T11:20:55.240Z,72.00
2022-12-29T11:21:55.231Z,72.11
2022-12-29T11:22:55.207Z,72.11
2022-12-29T11:23:55.181Z,72.31
2022-12-29T11:24:55.180Z,72.11
2022-12-29T11:25:55.159Z,72.21
2022-12-29T11:26:55.164Z,72.21
2022-12-29T11:27:55.156Z,72.21
2022-12-29T11:28:55.153Z,72.00
2022-12-29T11:29:55.109Z,71.80
2022-12-29T11:30:55.113Z,71.90
2022-12-29T11:31:55.123Z,71.59
2022-12-29T11:32:55.082Z,71.59
2022-12-29T11:33:55.076Z,71.70
2022-12-29T11:34:55.068Z,71.90
2022-12-29T11:35:55.056Z,71.70
2022-12-29T11:36:55.025Z,71.59
2022-12-29T11:37:55.033Z,71.59
2022-12-29T11:38:55.019Z,71.49
2022-12-29T11:39:55.011Z,71.49
2022-12-29T11:40:54.988Z,71.49
2022-12-29T11:41:54.984Z,71.08
2022-12-29T11:42:54.974Z,71.29
2022-12-29T11:43:54.959Z,71.08
2022-12-29T11:44:54.936Z,71.29
2022-12-29T11:45:55.062Z,71.29
2022-12-29T11:46:54.912Z,71.70
2022-12-29T11:47:54.918Z,71.39
2022-12-29T11:48:54.894Z,71.19
2022-12-29T11:49:54.887Z,71.19
2022-12-29T11:50:54.896Z,71.59
2022-12-29T11:51:54.880Z,71.08
2022-12-29T11:52:54.856Z,71.19
2022-12-29T11:53:54.848Z,71.08
2022-12-29T11:54:54.827Z,71.08
2022-12-29T11:55:54.822Z,70.67
2022-12-29T11:56:54.859Z,70.67
2022-12-29T11:57:54.791Z,70.88
2022-12-29T11:58:54.779Z,70.88
2022-12-29T11:59:54.767Z,70.78
2022-12-29T12:00:54.747Z,70.78
2022-12-29T12:01:54.831Z,70.78
2022-12-29T12:02:54.841Z,70.98
2022-12-29T12:03:54.982Z,71.29
2022-12-29T12:04:54.719Z,71.29
2022-12-29T12:05:54.733Z,71.49
2022-12-29T12:06:54.725Z,71.08
2022-12-29T12:07:54.681Z,71.19
2022-12-29T12:08:54.717Z,71.19
2022-12-29T12:09:54.652Z,71.19
2022-12-29T12:10:54.643Z,71.29
2022-12-29T12:11:54.628Z,71.08
2022-12-29T12:12:54.624Z,71.08
2022-12-29T12:13:54.606Z,70.88
2022-12-29T12:14:54.614Z,70.67
2022-12-29T12:15:57.065Z,70.78
2022-12-29T12:16:54.601Z,70.88
2022-12-29T12:17:54.578Z,71.08
2022-12-29T12:18:54.545Z,71.19
2022-12-29T12:19:54.530Z,70.88
2022-12-29T12:20:54.519Z,70.67
2022-12-29T12:21:54.557Z,70.78
2022-12-29T12:22:54.507Z,70.57
2022-12-29T12:23:54.496Z,70.67
2022-12-29T12:24:54.488Z,70.47
2022-12-29T12:25:54.494Z,70.47
2022-12-29T12:26:54.458Z,70.57
2022-12-29T12:27:54.457Z,70.78
2022-12-29T12:28:54.458Z,70.78
2022-12-29T12:29:54.452Z,70.88
2022-12-29T12:30:54.523Z,71.08
2022-12-29T12:31:54.404Z,71.22
2022-12-29T12:32:54.392Z,71.32
2022-12-29T12:33:54.395Z,71.32
2022-12-29T12:34:54.370Z,71.42
2022-12-29T12:35:54.351Z,71.32
2022-12-29T12:36:54.349Z,70.71
2022-12-29T12:37:54.328Z,70.91
2022-12-29T12:38:54.313Z,70.81
2022-12-29T12:39:54.313Z,70.71
2022-12-29T12:40:54.497Z,70.71
2022-12-29T12:41:54.287Z,70.81
2022-12-29T12:42:54.284Z,70.91
2022-12-29T12:43:54.451Z,71.01
2022-12-29T12:44:54.271Z,71.01
2022-12-29T12:45:54.297Z,70.81
2022-12-29T12:46:54.290Z,71.01
2022-12-29T12:47:54.236Z,70.91
2022-12-29T12:48:54.203Z,70.61
2022-12-29T12:49:54.194Z,71.01
2022-12-29T12:50:54.236Z,70.71
2022-12-29T12:51:57.086Z,70.71
2022-12-29T12:52:54.165Z,70.71